createdAt,value
2022-09-26T00:01:53.106Z,20.73
2022-09-26T00:04:54.726Z,23.65
2022-09-26T00:08:09.895Z,20.00
2022-09-26T00:11:19.894Z,21.00
2022-09-26T00:14:36.898Z,18.17
2022-09-26T00:17:45.380Z,20.77
2022-09-26T00:20:53.841Z,21.77
2022-09-26T00:24:09.880Z,20.98
2022-09-26T00:27:24.839Z,21.12
2022-09-26T00:30:26.711Z,21.43
2022-09-26T00:33:42.890Z,20.15
2022-09-26T00:36:51.343Z,21.12
2022-09-26T00:39:59.847Z,19.45
2022-09-26T00:43:26.487Z,22.05
2022-09-26T00:46:48.863Z,20.17
2022-09-26T00:50:02.140Z,23.83
2022-09-26T00:53:21.876Z,22.60
2022-09-26T00:56:30.837Z,22.23
2022-09-26T00:59:49.869Z,21.37
2022-09-26T01:02:58.803Z,19.40
2022-09-26T01:06:07.852Z,19.62
2022-09-26T01:09:22.867Z,21.70
2022-09-26T01:12:32.738Z,19.20
2022-09-26T01:15:41.875Z,17.58
2022-09-26T01:18:56.908Z,18.37
2022-09-26T01:22:30.329Z,19.08
2022-09-26T01:26:14.932Z,19.75
2022-09-26T01:29:54.893Z,20.25
2022-09-26T01:33:21.986Z,19.25
2022-09-26T01:37:03.864Z,20.90
2022-09-26T01:40:30.978Z,20.45
2022-09-26T01:43:48.179Z,19.90
2022-09-26T01:47:11.912Z,20.50
2022-09-26T01:50:35.856Z,20.23
2022-09-26T01:53:43.922Z,23.87
2022-09-26T01:57:01.964Z,21.55
2022-09-26T02:00:06.683Z,22.15
2022-09-26T02:03:25.939Z,18.87
2022-09-26T02:06:50.876Z,18.67
2022-09-26T02:09:58.171Z,19.67
2022-09-26T02:13:20.869Z,21.52
2022-09-26T02:16:44.940Z,18.92
2022-09-26T02:19:53.660Z,20.10
2022-09-26T02:23:08.872Z,19.05
2022-09-26T02:26:16.875Z,20.87
2022-09-26T02:29:25.802Z,19.40
2022-09-26T02:32:41.918Z,23.23
2022-09-26T02:35:49.960Z,18.83
2022-09-26T02:39:04.864Z,20.17
2022-09-26T02:42:38.871Z,23.27
2022-09-26T02:45:47.305Z,22.25
2022-09-26T02:49:32.898Z,22.48
2022-09-26T02:53:04.921Z,22.00
2022-09-26T02:56:24.755Z,19.12
2022-09-26T02:59:52.911Z,19.57
2022-09-26T03:03:07.906Z,21.80
2022-09-26T03:06:20.177Z,19.20
2022-09-26T03:09:36.888Z,21.25
2022-09-26T03:12:39.920Z,20.80
2022-09-26T03:15:59.936Z,22.37
2022-09-26T03:19:16.668Z,21.73
2022-09-26T03:22:24.893Z,21.42
2022-09-26T03:25:39.907Z,23.45
2022-09-26T03:28:41.626Z,21.80
2022-09-26T03:31:55.960Z,27.43
2022-09-26T03:35:10.952Z,22.95
2022-09-26T03:38:18.979Z,25.77
2022-09-26T03:41:34.232Z,24.52
2022-09-26T03:44:48.891Z,24.12
2022-09-26T03:47:58.259Z,26.60
2022-09-26T03:51:15.896Z,26.50
2022-09-26T03:54:17.458Z,24.73
2022-09-26T03:57:31.882Z,24.52
2022-09-26T04:00:40.781Z,22.90
2022-09-26T04:03:51.439Z,23.87
2022-09-26T04:07:00.106Z,23.42
2022-09-26T04:10:14.899Z,25.70
2022-09-26T04:13:49.579Z,24.92
2022-09-26T04:16:51.823Z,28.20
2022-09-26T04:20:06.993Z,26.40
2022-09-26T04:23:14.914Z,28.67
2022-09-26T04:26:29.911Z,27.42
2022-09-26T04:29:31.506Z,28.90
2022-09-26T04:32:45.911Z,25.75
2022-09-26T04:36:01.963Z,25.53
2022-09-26T04:39:04.508Z,24.42
2022-09-26T04:42:25.905Z,26.73
2022-09-26T04:45:34.347Z,25.95
2022-09-26T04:48:42.948Z,26.20
2022-09-26T04:51:51.404Z,27.30
2022-09-26T04:54:59.914Z,26.23
2022-09-26T04:58:14.920Z,25.98
2022-09-26T05:01:31.943Z,27.83
2022-09-26T05:04:34.239Z,26.52
2022-09-26T05:07:49.986Z,25.07
2022-09-26T05:10:58.431Z,23.73
2022-09-26T05:14:06.985Z,25.85
2022-09-26T05:17:15.517Z,26.98
2022-09-26T05:20:23.965Z,24.87
2022-09-26T05:23:33.421Z,24.53
2022-09-26T05:26:54.971Z,23.98
2022-09-26T05:29:56.554Z,25.65
2022-09-26T05:33:11.957Z,25.90
2022-09-26T05:36:20.558Z,27.23
2022-09-26T05:39:28.987Z,27.00
2022-09-26T05:42:50.976Z,30.17
2022-09-26T05:46:08.931Z,30.77
2022-09-26T05:49:10.585Z,24.70
2022-09-26T05:52:24.990Z,30.98
2022-09-26T05:55:28.479Z,26.13
2022-09-26T05:58:45.949Z,27.00
2022-09-26T06:01:54.658Z,26.58
2022-09-26T06:05:03.023Z,29.40
2022-09-26T06:08:21.011Z,28.87
2022-09-26T06:11:29.727Z,28.70
2022-09-26T06:18:04.955Z,26.08
2022-09-26T06:21:17.955Z,28.20
2022-09-26T06:24:33.382Z,29.58
2022-09-26T06:27:41.543Z,26.67
2022-09-26T06:30:50.060Z,28.55
2022-09-26T06:34:21.580Z,33.92
2022-09-26T06:37:36.054Z,30.73
2022-09-26T06:40:45.132Z,33.80
2022-09-26T06:44:07.063Z,28.50
2022-09-26T06:47:15.728Z,27.30
2022-09-26T06:50:23.967Z,32.80
2022-09-26T06:53:32.871Z,32.35
2022-09-26T06:56:50.059Z,31.67
2022-09-26T07:00:55.959Z,28.87
2022-09-26T07:08:50.482Z,31.85
2022-09-26T07:12:14.548Z,34.67
2022-09-26T07:15:44.773Z,31.25
2022-09-26T07:19:05.296Z,32.87
2022-09-26T07:22:53.699Z,35.53
2022-09-26T07:26:25.044Z,35.30
2022-09-26T07:29:36.076Z,36.55
2022-09-26T07:41:03.714Z,32.90
2022-09-26T07:45:20.950Z,34.40
2022-09-26T07:48:08.752Z,36.17
2022-09-26T07:51:18.011Z,32.55
2022-09-26T07:54:46.403Z,33.13
2022-09-26T07:58:13.990Z,30.05
2022-09-26T08:01:29.428Z,35.35
2022-09-26T08:05:04.828Z,32.65
2022-09-26T08:12:09.062Z,33.20
2022-09-26T08:15:27.256Z,34.25
2022-09-26T08:18:36.064Z,31.92
2022-09-26T08:21:54.966Z,29.37
2022-09-26T08:25:08.724Z,32.42
2022-09-26T08:32:36.505Z,32.20
2022-09-26T08:44:47.947Z,27.98
2022-09-26T08:48:49.476Z,22.97
2022-09-26T08:52:19.820Z,26.08
2022-09-26T08:55:47.327Z,22.08
2022-09-26T09:11:32.155Z,13.25
2022-09-26T09:15:29.843Z,14.35
2022-09-26T09:19:37.203Z,13.73
2022-09-26T09:31:30.220Z,13.20
2022-09-26T09:38:38.855Z,14.90
2022-09-26T10:02:15.080Z,8.38
2022-09-26T10:06:45.861Z,8.43
2022-09-26T10:10:04.052Z,10.95
2022-09-26T10:31:42.858Z,8.52
2022-09-26T10:35:31.263Z,8.73
2022-09-26T10:39:14.066Z,8.02
2022-09-26T10:42:53.362Z,7.07
2022-09-26T10:51:49.340Z,7.35
2022-09-26T10:55:01.411Z,8.48
2022-09-26T11:55:16.568Z,7.87
2022-09-26T12:03:43.853Z,7.07
2022-09-26T12:23:01.705Z,7.47
2022-09-26T13:03:00.930Z,6.60
2022-09-26T13:27:45.064Z,5.85
2022-09-26T13:43:24.283Z,6.73
2022-09-26T14:03:47.129Z,8.00
2022-09-26T14:07:24.412Z,7.15
2022-09-26T14:11:11.303Z,8.02
2022-09-26T14:14:47.119Z,8.18
2022-09-26T14:18:37.319Z,9.10
2022-09-26T14:22:09.432Z,9.67
2022-09-26T14:34:10.332Z,7.05
2022-09-26T14:37:50.365Z,10.18
2022-09-26T14:41:06.110Z,6.63
2022-09-26T14:44:48.317Z,6.60
2022-09-26T14:52:35.501Z,10.43
2022-09-26T15:00:49.754Z,7.47
2022-09-26T15:08:53.106Z,8.13
2022-09-26T15:16:46.839Z,7.07
2022-09-26T15:19:59.445Z,8.20
2022-09-26T15:27:26.909Z,6.68
2022-09-26T15:30:37.030Z,8.68
2022-09-26T15:34:18.917Z,7.15
2022-09-26T15:37:24.691Z,6.10
2022-09-26T15:40:39.046Z,7.10
2022-09-26T15:43:47.591Z,7.25
2022-09-26T15:46:56.962Z,6.95
2022-09-26T15:50:27.302Z,8.68
2022-09-26T15:53:53.145Z,7.00
2022-09-26T15:57:09.936Z,6.22
2022-09-26T16:00:19.172Z,7.75
2022-09-26T16:07:39.030Z,8.30
2022-09-26T16:10:59.529Z,6.77
2022-09-26T16:14:07.915Z,10.30
2022-09-26T16:17:48.194Z,7.85
2022-09-26T16:21:17.423Z,9.15
2022-09-26T16:24:41.096Z,11.82
2022-09-26T16:35:46.805Z,12.30
2022-09-26T16:38:59.946Z,12.73
2022-09-26T16:42:17.186Z,9.32
2022-09-26T16:45:34.972Z,10.23
2022-09-26T16:48:54.156Z,11.32
2022-09-26T16:52:27.906Z,11.85
2022-09-26T16:55:44.915Z,11.40
2022-09-26T16:58:54.616Z,16.00
2022-09-26T17:02:15.974Z,13.63
2022-09-26T17:05:40.935Z,14.85
2022-09-26T17:09:36.141Z,9.05
2022-09-26T17:21:29.028Z,23.23
2022-09-26T17:44:03.469Z,17.70
2022-09-26T17:46:49.684Z,19.27
2022-09-26T17:54:22.687Z,14.93
2022-09-26T17:55:12.043Z,20.77
2022-09-26T18:22:02.947Z,17.20
2022-09-26T18:25:44.152Z,17.08
2022-09-26T18:41:21.987Z,16.98
2022-09-26T18:45:08.933Z,18.87
2022-09-26T18:48:37.940Z,18.85
2022-09-26T18:52:01.790Z,20.95
2022-09-26T18:55:39.053Z,17.70
2022-09-26T19:18:37.437Z,20.00
2022-09-26T19:30:31.967Z,22.42
2022-09-26T19:35:03.879Z,21.07
2022-09-26T19:38:50.849Z,22.05
2022-09-26T19:42:03.109Z,25.15
2022-09-26T19:45:41.451Z,24.70
2022-09-26T19:48:43.275Z,25.20
2022-09-26T20:14:25.974Z,23.77
2022-09-26T20:17:42.984Z,23.67
2022-09-26T20:21:22.941Z,28.35
2022-09-26T20:24:53.977Z,24.23
2022-09-26T20:28:08.922Z,26.33
2022-09-26T20:31:21.914Z,24.48
2022-09-26T20:34:29.951Z,23.50
2022-09-26T20:37:40.292Z,19.95
2022-09-26T20:40:49.003Z,23.33
2022-09-26T20:44:07.980Z,19.63
2022-09-26T20:47:19.954Z,18.20
2022-09-26T20:50:33.813Z,20.48
2022-09-26T20:53:49.297Z,22.15
2022-09-26T20:57:04.943Z,20.48
2022-09-26T21:00:08.469Z,20.97
2022-09-26T21:03:24.964Z,18.40
2022-09-26T21:06:34.374Z,20.12
2022-09-26T21:10:02.052Z,18.12
2022-09-26T21:13:43.935Z,20.02
2022-09-26T21:17:19.136Z,20.57
2022-09-26T21:20:32.946Z,16.95
2022-09-26T21:23:49.972Z,19.60
2022-09-26T21:27:17.351Z,20.80
2022-09-26T21:30:27.011Z,19.90
2022-09-26T21:33:47.434Z,19.03
2022-09-26T21:36:59.923Z,19.10
2022-09-26T21:40:09.460Z,21.80
2022-09-26T21:43:28.939Z,18.35
2022-09-26T21:46:30.778Z,24.20
2022-09-26T21:49:46.235Z,22.80
2022-09-26T21:53:02.020Z,27.50
2022-09-26T21:56:16.951Z,24.00
2022-09-26T21:59:25.692Z,20.50
2022-09-26T22:02:34.111Z,20.65
2022-09-26T22:05:42.604Z,21.20
2022-09-26T22:08:57.295Z,15.73
2022-09-26T22:11:58.903Z,17.27
2022-09-26T22:15:20.988Z,20.00
2022-09-26T22:18:29.571Z,17.87
2022-09-26T22:21:37.967Z,15.50
2022-09-26T22:24:52.954Z,17.25
2022-09-26T22:28:01.938Z,16.00
2022-09-26T22:31:11.024Z,13.62
2022-09-26T22:34:20.695Z,14.95
2022-09-26T22:37:28.975Z,14.07
2022-09-26T22:40:37.789Z,16.02
2022-09-26T22:43:51.985Z,16.70
2022-09-26T22:46:53.622Z,19.12
2022-09-26T22:50:07.979Z,15.80
2022-09-26T22:53:09.902Z,16.23
2022-09-26T22:56:44.983Z,15.80
2022-09-26T22:59:46.942Z,15.80
2022-09-26T23:03:02.001Z,17.83
2022-09-26T23:06:11.402Z,16.62
2022-09-26T23:09:19.994Z,18.90
2022-09-26T23:12:42.007Z,16.17
2022-09-26T23:15:51.010Z,16.98
2022-09-26T23:18:59.563Z,18.80
2022-09-26T23:22:08.021Z,16.98
2022-09-26T23:25:23.033Z,18.00
2022-09-26T23:28:39.261Z,17.55
2022-09-26T23:31:46.967Z,19.30
2022-09-26T23:34:55.700Z,20.05
2022-09-26T23:38:05.285Z,22.40
2022-09-26T23:41:33.326Z,21.50
2022-09-26T23:44:48.000Z,19.42
2022-09-26T23:47:56.286Z,20.08
2022-09-26T23:51:05.439Z,18.62
2022-09-26T23:54:35.097Z,19.87
2022-09-26T23:57:36.664Z,24.20
